sensor_id;sensor_type;location;lat;lon;timestamp;P1;durP1;ratioP1;P2;durP2;ratioP2
10315;SDS011;5203;48.976;8.306;2022-08-03T00:01:36;5.18;;;4.88;;
10315;SDS011;5203;48.976;8.306;2022-08-03T00:04:04;5.00;;;4.60;;
10315;SDS011;5203;48.976;8.306;2022-08-03T00:06:31;4.75;;;4.45;;
10315;SDS011;5203;48.976;8.306;2022-08-03T00:08:56;4.88;;;4.57;;
10315;SDS011;5203;48.976;8.306;2022-08-03T00:11:22;4.88;;;4.57;;
10315;SDS011;5203;48.976;8.306;2022-08-03T00:13:48;5.15;;;4.75;;
10315;SDS011;5203;48.976;8.306;2022-08-03T00:16:14;6.80;;;5.10;;
10315;SDS011;5203;48.976;8.306;2022-08-03T00:18:41;7.80;;;4.70;;
10315;SDS011;5203;48.976;8.306;2022-08-03T00:21:07;5.20;;;4.80;;
10315;SDS011;5203;48.976;8.306;2022-08-03T00:23:33;5.45;;;5.05;;
10315;SDS011;5203;48.976;8.306;2022-08-03T00:25:58;5.35;;;4.82;;
10315;SDS011;5203;48.976;8.306;2022-08-03T00:28:24;5.32;;;4.95;;
10315;SDS011;5203;48.976;8.306;2022-08-03T00:30:50;5.07;;;4.68;;
10315;SDS011;5203;48.976;8.306;2022-08-03T00:33:16;4.90;;;4.60;;
10315;SDS011;5203;48.976;8.306;2022-08-03T00:35:42;5.10;;;4.80;;
10315;SDS011;5203;48.976;8.306;2022-08-03T00:38:07;6.60;;;4.80;;
10315;SDS011;5203;48.976;8.306;2022-08-03T00:40:33;4.97;;;4.55;;
10315;SDS011;5203;48.976;8.306;2022-08-03T00:43:03;5.03;;;4.72;;
10315;SDS011;5203;48.976;8.306;2022-08-03T00:45:31;5.30;;;4.93;;
10315;SDS011;5203;48.976;8.306;2022-08-03T00:47:58;5.40;;;5.00;;
10315;SDS011;5203;48.976;8.306;2022-08-03T00:50:26;4.85;;;4.55;;
10315;SDS011;5203;48.976;8.306;2022-08-03T00:52:54;4.93;;;4.63;;
10315;SDS011;5203;48.976;8.306;2022-08-03T00:55:22;4.60;;;4.30;;
10315;SDS011;5203;48.976;8.306;2022-08-03T00:57:48;5.82;;;4.75;;
10315;SDS011;5203;48.976;8.306;2022-08-03T01:00:16;5.03;;;4.63;;
10315;SDS011;5203;48.976;8.306;2022-08-03T01:02:44;5.10;;;4.80;;
10315;SDS011;5203;48.976;8.306;2022-08-03T01:05:09;5.65;;;5.13;;
10315;SDS011;5203;48.976;8.306;2022-08-03T01:12:57;6.20;;;4.72;;
10315;SDS011;5203;48.976;8.306;2022-08-03T01:21:03;5.28;;;4.88;;
10315;SDS011;5203;48.976;8.306;2022-08-03T01:26:33;5.10;;;4.80;;
10315;SDS011;5203;48.976;8.306;2022-08-03T01:32:13;5.00;;;4.70;;
10315;SDS011;5203;48.976;8.306;2022-08-03T01:34:54;5.75;;;5.35;;
10315;SDS011;5203;48.976;8.306;2022-08-03T01:37:27;5.60;;;5.10;;
10315;SDS011;5203;48.976;8.306;2022-08-03T01:40:01;5.10;;;4.80;;
10315;SDS011;5203;48.976;8.306;2022-08-03T01:42:29;5.22;;;4.93;;
10315;SDS011;5203;48.976;8.306;2022-08-03T01:44:56;5.28;;;4.88;;
10315;SDS011;5203;48.976;8.306;2022-08-03T01:47:24;5.20;;;4.80;;
10315;SDS011;5203;48.976;8.306;2022-08-03T01:49:51;5.15;;;4.85;;
10315;SDS011;5203;48.976;8.306;2022-08-03T01:52:18;5.10;;;4.80;;
10315;SDS011;5203;48.976;8.306;2022-08-03T01:54:47;5.20;;;4.80;;
10315;SDS011;5203;48.976;8.306;2022-08-03T01:57:15;5.18;;;4.88;;
10315;SDS011;5203;48.976;8.306;2022-08-03T01:59:42;5.50;;;5.15;;
10315;SDS011;5203;48.976;8.306;2022-08-03T02:02:09;5.00;;;4.70;;
10315;SDS011;5203;48.976;8.306;2022-08-03T02:04:37;4.90;;;4.57;;
10315;SDS011;5203;48.976;8.306;2022-08-03T02:07:05;5.10;;;4.80;;
10315;SDS011;5203;48.976;8.306;2022-08-03T02:09:33;5.00;;;4.70;;
10315;SDS011;5203;48.976;8.306;2022-08-03T02:12:03;5.28;;;4.88;;
10315;SDS011;5203;48.976;8.306;2022-08-03T02:14:35;5.60;;;5.20;;
10315;SDS011;5203;48.976;8.306;2022-08-03T02:17:03;5.05;;;4.50;;
10315;SDS011;5203;48.976;8.306;2022-08-03T02:19:30;5.50;;;5.18;;
10315;SDS011;5203;48.976;8.306;2022-08-03T02:21:57;5.47;;;5.18;;
10315;SDS011;5203;48.976;8.306;2022-08-03T02:24:23;5.30;;;5.00;;
10315;SDS011;5203;48.976;8.306;2022-08-03T02:26:50;5.45;;;4.97;;
10315;SDS011;5203;48.976;8.306;2022-08-03T02:29:19;5.60;;;5.30;;
10315;SDS011;5203;48.976;8.306;2022-08-03T02:31:47;5.10;;;4.80;;
10315;SDS011;5203;48.976;8.306;2022-08-03T02:34:14;5.47;;;5.18;;
10315;SDS011;5203;48.976;8.306;2022-08-03T02:36:44;5.50;;;5.10;;
10315;SDS011;5203;48.976;8.306;2022-08-03T02:39:14;5.15;;;4.80;;
10315;SDS011;5203;48.976;8.306;2022-08-03T02:41:45;5.63;;;5.00;;
10315;SDS011;5203;48.976;8.306;2022-08-03T02:44:13;5.28;;;4.97;;
10315;SDS011;5203;48.976;8.306;2022-08-03T02:46:44;5.68;;;5.18;;
10315;SDS011;5203;48.976;8.306;2022-08-03T02:49:12;6.25;;;4.90;;
10315;SDS011;5203;48.976;8.306;2022-08-03T02:51:40;6.25;;;5.65;;
10315;SDS011;5203;48.976;8.306;2022-08-03T02:54:07;7.90;;;5.72;;
10315;SDS011;5203;48.976;8.306;2022-08-03T02:56:34;6.40;;;5.10;;
10315;SDS011;5203;48.976;8.306;2022-08-03T02:59:01;5.85;;;5.35;;
10315;SDS011;5203;48.976;8.306;2022-08-03T03:01:28;5.63;;;5.20;;
10315;SDS011;5203;48.976;8.306;2022-08-03T03:03:56;23.98;;;6.90;;
10315;SDS011;5203;48.976;8.306;2022-08-03T03:06:25;16.83;;;6.32;;
10315;SDS011;5203;48.976;8.306;2022-08-03T03:08:52;9.00;;;5.32;;
10315;SDS011;5203;48.976;8.306;2022-08-03T03:11:20;5.47;;;4.95;;
10315;SDS011;5203;48.976;8.306;2022-08-03T03:13:47;5.78;;;5.28;;
10315;SDS011;5203;48.976;8.306;2022-08-03T03:16:13;5.72;;;5.28;;
10315;SDS011;5203;48.976;8.306;2022-08-03T03:18:41;5.18;;;4.70;;
10315;SDS011;5203;48.976;8.306;2022-08-03T03:21:08;5.72;;;5.32;;
10315;SDS011;5203;48.976;8.306;2022-08-03T03:23:35;5.25;;;4.95;;
10315;SDS011;5203;48.976;8.306;2022-08-03T03:26:03;5.07;;;4.78;;
10315;SDS011;5203;48.976;8.306;2022-08-03T03:28:29;5.18;;;4.88;;
10315;SDS011;5203;48.976;8.306;2022-08-03T03:30:56;5.45;;;5.00;;
10315;SDS011;5203;48.976;8.306;2022-08-03T03:33:23;5.60;;;5.20;;
10315;SDS011;5203;48.976;8.306;2022-08-03T03:35:52;5.80;;;5.35;;
10315;SDS011;5203;48.976;8.306;2022-08-03T03:38:18;6.13;;;5.18;;
10315;SDS011;5203;48.976;8.306;2022-08-03T03:40:44;5.35;;;5.05;;
10315;SDS011;5203;48.976;8.306;2022-08-03T03:43:11;5.05;;;4.75;;
10315;SDS011;5203;48.976;8.306;2022-08-03T03:45:43;5.95;;;5.40;;
10315;SDS011;5203;48.976;8.306;2022-08-03T03:48:11;5.20;;;4.90;;
10315;SDS011;5203;48.976;8.306;2022-08-03T03:50:40;5.63;;;5.28;;
10315;SDS011;5203;48.976;8.306;2022-08-03T03:53:11;5.43;;;5.00;;
10315;SDS011;5203;48.976;8.306;2022-08-03T03:55:38;5.55;;;5.05;;
10315;SDS011;5203;48.976;8.306;2022-08-03T03:58:04;5.47;;;4.97;;
10315;SDS011;5203;48.976;8.306;2022-08-03T04:00:31;5.65;;;5.15;;
10315;SDS011;5203;48.976;8.306;2022-08-03T04:02:57;7.70;;;5.47;;
10315;SDS011;5203;48.976;8.306;2022-08-03T04:05:22;5.13;;;4.82;;
10315;SDS011;5203;48.976;8.306;2022-08-03T04:08:16;5.13;;;4.82;;
10315;SDS011;5203;48.976;8.306;2022-08-03T04:16:33;5.70;;;5.00;;
10315;SDS011;5203;48.976;8.306;2022-08-03T04:19:04;6.18;;;5.57;;
10315;SDS011;5203;48.976;8.306;2022-08-03T04:21:36;5.53;;;5.00;;
10315;SDS011;5203;48.976;8.306;2022-08-03T04:24:07;5.57;;;5.15;;
10315;SDS011;5203;48.976;8.306;2022-08-03T04:26:36;5.95;;;5.38;;
10315;SDS011;5203;48.976;8.306;2022-08-03T04:29:05;5.70;;;5.18;;
10315;SDS011;5203;48.976;8.306;2022-08-03T04:31:32;7.13;;;5.68;;
10315;SDS011;5203;48.976;8.306;2022-08-03T04:33:59;6.70;;;4.97;;
10315;SDS011;5203;48.976;8.306;2022-08-03T04:36:26;7.25;;;5.55;;
10315;SDS011;5203;48.976;8.306;2022-08-03T04:41:31;19.48;;;6.80;;
10315;SDS011;5203;48.976;8.306;2022-08-03T04:43:59;15.23;;;6.00;;
10315;SDS011;5203;48.976;8.306;2022-08-03T04:46:27;5.85;;;5.35;;
10315;SDS011;5203;48.976;8.306;2022-08-03T04:48:56;6.20;;;5.60;;
10315;SDS011;5203;48.976;8.306;2022-08-03T04:51:23;5.78;;;5.30;;
10315;SDS011;5203;48.976;8.306;2022-08-03T04:53:50;5.60;;;5.20;;
10315;SDS011;5203;48.976;8.306;2022-08-03T04:56:15;6.38;;;5.30;;
10315;SDS011;5203;48.976;8.306;2022-08-03T04:58:41;5.57;;;4.88;;
10315;SDS011;5203;48.976;8.306;2022-08-03T05:01:08;5.70;;;5.20;;
10315;SDS011;5203;48.976;8.306;2022-08-03T05:03:33;5.88;;;5.15;;
10315;SDS011;5203;48.976;8.306;2022-08-03T05:05:59;6.10;;;5.00;;
10315;SDS011;5203;48.976;8.306;2022-08-03T05:08:25;5.65;;;5.20;;
10315;SDS011;5203;48.976;8.306;2022-08-03T05:10:51;8.23;;;7.20;;
10315;SDS011;5203;48.976;8.306;2022-08-03T05:13:17;6.30;;;5.80;;
10315;SDS011;5203;48.976;8.306;2022-08-03T05:15:43;7.93;;;5.70;;
10315;SDS011;5203;48.976;8.306;2022-08-03T05:18:09;11.85;;;5.63;;
10315;SDS011;5203;48.976;8.306;2022-08-03T05:20:35;8.15;;;5.82;;
10315;SDS011;5203;48.976;8.306;2022-08-03T05:23:01;6.95;;;5.47;;
10315;SDS011;5203;48.976;8.306;2022-08-03T05:25:28;5.80;;;5.40;;
10315;SDS011;5203;48.976;8.306;2022-08-03T05:27:54;6.25;;;5.75;;
10315;SDS011;5203;48.976;8.306;2022-08-03T05:30:20;5.95;;;4.95;;
10315;SDS011;5203;48.976;8.306;2022-08-03T05:32:55;6.30;;;5.80;;
10315;SDS011;5203;48.976;8.306;2022-08-03T05:35:20;5.57;;;5.18;;
10315;SDS011;5203;48.976;8.306;2022-08-03T05:37:49;6.85;;;6.28;;
10315;SDS011;5203;48.976;8.306;2022-08-03T05:40:15;16.00;;;6.72;;
10315;SDS011;5203;48.976;8.306;2022-08-03T05:42:40;8.82;;;6.43;;
10315;SDS011;5203;48.976;8.306;2022-08-03T05:45:06;6.30;;;5.85;;
10315;SDS011;5203;48.976;8.306;2022-08-03T05:47:39;6.85;;;5.95;;
10315;SDS011;5203;48.976;8.306;2022-08-03T05:50:06;6.88;;;6.22;;
10315;SDS011;5203;48.976;8.306;2022-08-03T05:52:32;9.95;;;6.57;;
10315;SDS011;5203;48.976;8.306;2022-08-03T05:54:57;7.80;;;5.68;;
10315;SDS011;5203;48.976;8.306;2022-08-03T05:57:24;6.50;;;6.10;;
10315;SDS011;5203;48.976;8.306;2022-08-03T05:59:50;6.55;;;6.03;;
10315;SDS011;5203;48.976;8.306;2022-08-03T06:02:16;6.53;;;6.00;;
10315;SDS011;5203;48.976;8.306;2022-08-03T06:04:41;6.72;;;6.10;;
10315;SDS011;5203;48.976;8.306;2022-08-03T06:07:07;6.10;;;5.60;;
10315;SDS011;5203;48.976;8.306;2022-08-03T06:09:33;6.30;;;5.80;;
10315;SDS011;5203;48.976;8.306;2022-08-03T06:11:58;6.93;;;6.35;;
10315;SDS011;5203;48.976;8.306;2022-08-03T06:14:24;7.60;;;6.28;;
10315;SDS011;5203;48.976;8.306;2022-08-03T06:16:50;6.53;;;5.95;;
10315;SDS011;5203;48.976;8.306;2022-08-03T06:19:16;6.07;;;5.47;;
10315;SDS011;5203;48.976;8.306;2022-08-03T06:21:41;6.65;;;6.05;;
10315;SDS011;5203;48.976;8.306;2022-08-03T06:24:07;6.22;;;5.68;;
10315;SDS011;5203;48.976;8.306;2022-08-03T06:26:33;6.60;;;6.07;;
10315;SDS011;5203;48.976;8.306;2022-08-03T06:28:59;5.82;;;5.18;;
10315;SDS011;5203;48.976;8.306;2022-08-03T06:31:26;6.25;;;5.55;;
10315;SDS011;5203;48.976;8.306;2022-08-03T06:33:53;5.75;;;5.22;;
10315;SDS011;5203;48.976;8.306;2022-08-03T06:36:19;6.18;;;5.68;;
10315;SDS011;5203;48.976;8.306;2022-08-03T06:38:45;8.07;;;6.15;;
10315;SDS011;5203;48.976;8.306;2022-08-03T06:41:11;9.60;;;6.22;;
10315;SDS011;5203;48.976;8.306;2022-08-03T06:43:37;5.65;;;5.25;;
10315;SDS011;5203;48.976;8.306;2022-08-03T06:46:03;5.80;;;5.30;;
10315;SDS011;5203;48.976;8.306;2022-08-03T06:48:29;8.32;;;6.32;;
10315;SDS011;5203;48.976;8.306;2022-08-03T06:50:55;10.00;;;6.25;;
10315;SDS011;5203;48.976;8.306;2022-08-03T06:53:21;6.53;;;5.93;;
10315;SDS011;5203;48.976;8.306;2022-08-03T06:55:47;6.00;;;5.50;;
10315;SDS011;5203;48.976;8.306;2022-08-03T06:58:13;6.20;;;5.68;;
10315;SDS011;5203;48.976;8.306;2022-08-03T07:00:38;17.38;;;6.53;;
10315;SDS011;5203;48.976;8.306;2022-08-03T07:03:04;6.10;;;5.50;;
10315;SDS011;5203;48.976;8.306;2022-08-03T07:05:30;5.82;;;5.35;;
10315;SDS011;5203;48.976;8.306;2022-08-03T07:07:59;6.70;;;6.00;;
10315;SDS011;5203;48.976;8.306;2022-08-03T07:10:26;8.23;;;7.43;;
10315;SDS011;5203;48.976;8.306;2022-08-03T07:12:52;6.35;;;5.75;;
10315;SDS011;5203;48.976;8.306;2022-08-03T07:15:18;6.25;;;5.75;;
10315;SDS011;5203;48.976;8.306;2022-08-03T07:17:44;6.30;;;5.70;;
10315;SDS011;5203;48.976;8.306;2022-08-03T07:20:09;7.75;;;5.30;;
10315;SDS011;5203;48.976;8.306;2022-08-03T07:22:37;7.13;;;5.90;;
10315;SDS011;5203;48.976;8.306;2022-08-03T07:25:03;6.43;;;5.63;;
10315;SDS011;5203;48.976;8.306;2022-08-03T07:27:29;7.72;;;5.55;;
10315;SDS011;5203;48.976;8.306;2022-08-03T07:29:56;9.85;;;5.00;;
10315;SDS011;5203;48.976;8.306;2022-08-03T07:32:22;7.80;;;5.18;;
10315;SDS011;5203;48.976;8.306;2022-08-03T07:34:48;5.75;;;5.25;;
10315;SDS011;5203;48.976;8.306;2022-08-03T07:37:14;6.55;;;5.47;;
10315;SDS011;5203;48.976;8.306;2022-08-03T07:39:40;5.45;;;4.95;;
10315;SDS011;5203;48.976;8.306;2022-08-03T07:42:06;5.75;;;5.25;;
10315;SDS011;5203;48.976;8.306;2022-08-03T07:44:32;6.80;;;5.57;;
10315;SDS011;5203;48.976;8.306;2022-08-03T07:46:57;6.90;;;5.28;;
10315;SDS011;5203;48.976;8.306;2022-08-03T07:49:23;6.45;;;5.80;;
10315;SDS011;5203;48.976;8.306;2022-08-03T07:51:49;6.88;;;5.43;;
10315;SDS011;5203;48.976;8.306;2022-08-03T07:54:35;5.70;;;5.20;;
10315;SDS011;5203;48.976;8.306;2022-08-03T07:57:00;5.68;;;5.13;;
10315;SDS011;5203;48.976;8.306;2022-08-03T07:59:26;6.20;;;4.82;;
10315;SDS011;5203;48.976;8.306;2022-08-03T08:01:52;5.57;;;5.18;;
10315;SDS011;5203;48.976;8.306;2022-08-03T08:04:18;5.88;;;5.38;;
10315;SDS011;5203;48.976;8.306;2022-08-03T08:06:43;5.20;;;4.70;;
10315;SDS011;5203;48.976;8.306;2022-08-03T08:09:09;5.68;;;5.25;;
10315;SDS011;5203;48.976;8.306;2022-08-03T08:11:35;6.28;;;5.68;;
10315;SDS011;5203;48.976;8.306;2022-08-03T08:14:01;5.65;;;5.10;;
10315;SDS011;5203;48.976;8.306;2022-08-03T08:16:29;6.40;;;5.90;;
10315;SDS011;5203;48.976;8.306;2022-08-03T08:18:54;5.68;;;5.18;;
10315;SDS011;5203;48.976;8.306;2022-08-03T08:21:20;9.20;;;5.97;;
10315;SDS011;5203;48.976;8.306;2022-08-03T08:23:46;5.65;;;5.10;;
10315;SDS011;5203;48.976;8.306;2022-08-03T08:26:12;5.70;;;5.20;;
10315;SDS011;5203;48.976;8.306;2022-08-03T08:28:38;6.07;;;5.55;;
10315;SDS011;5203;48.976;8.306;2022-08-03T08:31:03;5.90;;;5.38;;
10315;SDS011;5203;48.976;8.306;2022-08-03T08:33:29;6.15;;;5.55;;
10315;SDS011;5203;48.976;8.306;2022-08-03T08:35:56;5.40;;;5.00;;
10315;SDS011;5203;48.976;8.306;2022-08-03T08:38:25;6.32;;;5.63;;
10315;SDS011;5203;48.976;8.306;2022-08-03T08:40:53;5.75;;;5.25;;
10315;SDS011;5203;48.976;8.306;2022-08-03T08:43:20;6.15;;;5.40;;
10315;SDS011;5203;48.976;8.306;2022-08-03T08:45:48;6.10;;;5.50;;
10315;SDS011;5203;48.976;8.306;2022-08-03T08:48:16;6.45;;;5.65;;
10315;SDS011;5203;48.976;8.306;2022-08-03T08:50:46;5.47;;;5.03;;
10315;SDS011;5203;48.976;8.306;2022-08-03T08:53:13;5.63;;;5.13;;
10315;SDS011;5203;48.976;8.306;2022-08-03T08:55:40;5.85;;;5.28;;
10315;SDS011;5203;48.976;8.306;2022-08-03T08:58:10;6.47;;;5.55;;
10315;SDS011;5203;48.976;8.306;2022-08-03T09:00:37;5.38;;;4.93;;
10315;SDS011;5203;48.976;8.306;2022-08-03T09:03:02;5.70;;;5.25;;
10315;SDS011;5203;48.976;8.306;2022-08-03T09:05:28;5.43;;;5.03;;
10315;SDS011;5203;48.976;8.306;2022-08-03T09:07:57;5.68;;;5.20;;
10315;SDS011;5203;48.976;8.306;2022-08-03T09:10:24;10.20;;;6.07;;
10315;SDS011;5203;48.976;8.306;2022-08-03T09:12:50;5.60;;;5.20;;
10315;SDS011;5203;48.976;8.306;2022-08-03T09:15:17;5.95;;;5.55;;
10315;SDS011;5203;48.976;8.306;2022-08-03T09:17:45;6.05;;;5.63;;
10315;SDS011;5203;48.976;8.306;2022-08-03T09:20:11;6.25;;;5.68;;
10315;SDS011;5203;48.976;8.306;2022-08-03T09:25:34;6.45;;;5.50;;
10315;SDS011;5203;48.976;8.306;2022-08-03T09:28:08;5.85;;;5.22;;
10315;SDS011;5203;48.976;8.306;2022-08-03T09:30:42;5.35;;;5.03;;
10315;SDS011;5203;48.976;8.306;2022-08-03T09:33:12;6.68;;;5.60;;
10315;SDS011;5203;48.976;8.306;2022-08-03T09:35:41;5.55;;;5.20;;
10315;SDS011;5203;48.976;8.306;2022-08-03T09:38:18;9.85;;;5.57;;
10315;SDS011;5203;48.976;8.306;2022-08-03T09:40:50;6.15;;;5.65;;
10315;SDS011;5203;48.976;8.306;2022-08-03T09:43:16;6.40;;;5.72;;
10315;SDS011;5203;48.976;8.306;2022-08-03T09:45:42;6.45;;;5.85;;
10315;SDS011;5203;48.976;8.306;2022-08-03T09:48:24;6.93;;;5.72;;
10315;SDS011;5203;48.976;8.306;2022-08-03T09:50:52;6.30;;;5.82;;
10315;SDS011;5203;48.976;8.306;2022-08-03T09:53:19;6.07;;;5.57;;
10315;SDS011;5203;48.976;8.306;2022-08-03T09:58:24;6.00;;;5.40;;
10315;SDS011;5203;48.976;8.306;2022-08-03T10:00:56;6.40;;;5.82;;
10315;SDS011;5203;48.976;8.306;2022-08-03T10:03:29;5.90;;;5.40;;
10315;SDS011;5203;48.976;8.306;2022-08-03T10:05:56;6.28;;;5.68;;
10315;SDS011;5203;48.976;8.306;2022-08-03T10:08:22;6.20;;;5.80;;
10315;SDS011;5203;48.976;8.306;2022-08-03T10:10:49;6.45;;;5.95;;
10315;SDS011;5203;48.976;8.306;2022-08-03T10:13:18;6.13;;;5.47;;
10315;SDS011;5203;48.976;8.306;2022-08-03T10:15:45;5.80;;;5.38;;
10315;SDS011;5203;48.976;8.306;2022-08-03T10:18:14;5.95;;;5.55;;
10315;SDS011;5203;48.976;8.306;2022-08-03T10:20:42;6.50;;;5.55;;
10315;SDS011;5203;48.976;8.306;2022-08-03T10:23:12;6.57;;;5.80;;
10315;SDS011;5203;48.976;8.306;2022-08-03T10:25:40;5.80;;;5.30;;
10315;SDS011;5203;48.976;8.306;2022-08-03T10:28:11;6.22;;;5.68;;
10315;SDS011;5203;48.976;8.306;2022-08-03T10:30:40;5.97;;;5.45;;
10315;SDS011;5203;48.976;8.306;2022-08-03T10:33:27;5.53;;;5.07;;
10315;SDS011;5203;48.976;8.306;2022-08-03T10:35:55;6.47;;;5.40;;
10315;SDS011;5203;48.976;8.306;2022-08-03T10:38:24;5.55;;;5.25;;
10315;SDS011;5203;48.976;8.306;2022-08-03T10:41:04;5.50;;;5.20;;
10315;SDS011;5203;48.976;8.306;2022-08-03T10:43:33;5.40;;;5.05;;
10315;SDS011;5203;48.976;8.306;2022-08-03T10:46:06;5.05;;;4.65;;
10315;SDS011;5203;48.976;8.306;2022-08-03T10:48:32;6.65;;;6.15;;
10315;SDS011;5203;48.976;8.306;2022-08-03T10:50:59;5.55;;;5.15;;
10315;SDS011;5203;48.976;8.306;2022-08-03T10:56:02;5.38;;;5.07;;
10315;SDS011;5203;48.976;8.306;2022-08-03T10:58:49;6.22;;;4.80;;
10315;SDS011;5203;48.976;8.306;2022-08-03T11:01:18;5.60;;;5.20;;
10315;SDS011;5203;48.976;8.306;2022-08-03T11:04:14;5.57;;;5.28;;
10315;SDS011;5203;48.976;8.306;2022-08-03T11:09:48;5.65;;;5.22;;
10315;SDS011;5203;48.976;8.306;2022-08-03T11:14:55;5.72;;;5.43;;
10315;SDS011;5203;48.976;8.306;2022-08-03T11:17:24;5.63;;;5.32;;
10315;SDS011;5203;48.976;8.306;2022-08-03T11:19:51;5.55;;;5.22;;
10315;SDS011;5203;48.976;8.306;2022-08-03T11:22:18;6.07;;;5.78;;
10315;SDS011;5203;48.976;8.306;2022-08-03T11:27:48;6.32;;;5.93;;
10315;SDS011;5203;48.976;8.306;2022-08-03T11:35:18;6.35;;;5.90;;
10315;SDS011;5203;48.976;8.306;2022-08-03T11:38:11;6.63;;;6.30;;
10315;SDS011;5203;48.976;8.306;2022-08-03T11:46:05;6.75;;;6.30;;
10315;SDS011;5203;48.976;8.306;2022-08-03T11:48:47;6.65;;;6.18;;
10315;SDS011;5203;48.976;8.306;2022-08-03T11:51:18;6.70;;;6.20;;
10315;SDS011;5203;48.976;8.306;2022-08-03T11:53:49;6.75;;;6.25;;
10315;SDS011;5203;48.976;8.306;2022-08-03T11:56:26;6.70;;;6.10;;
10315;SDS011;5203;48.976;8.306;2022-08-03T11:58:56;6.50;;;6.10;;
10315;SDS011;5203;48.976;8.306;2022-08-03T12:01:23;6.30;;;6.00;;
10315;SDS011;5203;48.976;8.306;2022-08-03T12:03:49;6.13;;;5.82;;
10315;SDS011;5203;48.976;8.306;2022-08-03T12:06:16;7.03;;;6.40;;
10315;SDS011;5203;48.976;8.306;2022-08-03T12:08:43;6.70;;;6.28;;
10315;SDS011;5203;48.976;8.306;2022-08-03T12:11:12;6.43;;;6.13;;
10315;SDS011;5203;48.976;8.306;2022-08-03T12:13:40;6.50;;;6.10;;
10315;SDS011;5203;48.976;8.306;2022-08-03T12:16:07;6.75;;;6.35;;
10315;SDS011;5203;48.976;8.306;2022-08-03T12:18:34;6.82;;;6.13;;
10315;SDS011;5203;48.976;8.306;2022-08-03T12:21:04;6.82;;;6.22;;
10315;SDS011;5203;48.976;8.306;2022-08-03T12:23:32;6.40;;;6.10;;
10315;SDS011;5203;48.976;8.306;2022-08-03T12:26:02;6.25;;;5.80;;
10315;SDS011;5203;48.976;8.306;2022-08-03T12:28:32;6.28;;;5.93;;
10315;SDS011;5203;48.976;8.306;2022-08-03T12:31:03;6.43;;;6.03;;
10315;SDS011;5203;48.976;8.306;2022-08-03T12:33:31;6.97;;;6.60;;
10315;SDS011;5203;48.976;8.306;2022-08-03T12:36:17;7.05;;;6.43;;
10315;SDS011;5203;48.976;8.306;2022-08-03T12:38:43;6.53;;;6.18;;
10315;SDS011;5203;48.976;8.306;2022-08-03T12:41:26;6.40;;;6.10;;
10315;SDS011;5203;48.976;8.306;2022-08-03T12:43:57;6.93;;;6.45;;
10315;SDS011;5203;48.976;8.306;2022-08-03T12:46:28;6.25;;;5.95;;
10315;SDS011;5203;48.976;8.306;2022-08-03T12:48:59;6.75;;;6.45;;
10315;SDS011;5203;48.976;8.306;2022-08-03T12:54:09;7.00;;;6.68;;
10315;SDS011;5203;48.976;8.306;2022-08-03T12:59:29;7.28;;;6.88;;
10315;SDS011;5203;48.976;8.306;2022-08-03T13:01:59;7.10;;;6.70;;
10315;SDS011;5203;48.976;8.306;2022-08-03T13:04:26;6.90;;;6.60;;
10315;SDS011;5203;48.976;8.306;2022-08-03T13:07:11;7.05;;;6.40;;
10315;SDS011;5203;48.976;8.306;2022-08-03T13:12:14;7.10;;;6.65;;
10315;SDS011;5203;48.976;8.306;2022-08-03T13:14:42;7.50;;;7.10;;
10315;SDS011;5203;48.976;8.306;2022-08-03T13:17:09;7.47;;;7.07;;
10315;SDS011;5203;48.976;8.306;2022-08-03T13:19:35;7.43;;;7.13;;
10315;SDS011;5203;48.976;8.306;2022-08-03T13:24:44;7.50;;;7.05;;
10315;SDS011;5203;48.976;8.306;2022-08-03T13:27:11;7.20;;;6.80;;
10315;SDS011;5203;48.976;8.306;2022-08-03T13:29:37;7.50;;;7.00;;
10315;SDS011;5203;48.976;8.306;2022-08-03T13:32:03;7.05;;;6.70;;
10315;SDS011;5203;48.976;8.306;2022-08-03T13:34:30;7.07;;;6.68;;
10315;SDS011;5203;48.976;8.306;2022-08-03T13:36:56;7.80;;;7.18;;
10315;SDS011;5203;48.976;8.306;2022-08-03T13:39:21;7.30;;;6.20;;
10315;SDS011;5203;48.976;8.306;2022-08-03T13:41:47;6.93;;;6.55;;
10315;SDS011;5203;48.976;8.306;2022-08-03T13:44:13;7.72;;;7.22;;
10315;SDS011;5203;48.976;8.306;2022-08-03T13:46:39;7.50;;;7.10;;
10315;SDS011;5203;48.976;8.306;2022-08-03T13:49:07;7.50;;;7.10;;
10315;SDS011;5203;48.976;8.306;2022-08-03T13:51:36;7.70;;;7.30;;
10315;SDS011;5203;48.976;8.306;2022-08-03T13:54:02;8.02;;;7.40;;
10315;SDS011;5203;48.976;8.306;2022-08-03T13:56:28;7.35;;;6.93;;
10315;SDS011;5203;48.976;8.306;2022-08-03T13:58:55;7.57;;;7.18;;
10315;SDS011;5203;48.976;8.306;2022-08-03T14:01:21;7.82;;;7.43;;
10315;SDS011;5203;48.976;8.306;2022-08-03T14:03:47;7.95;;;7.55;;
10315;SDS011;5203;48.976;8.306;2022-08-03T14:06:17;7.95;;;7.55;;
10315;SDS011;5203;48.976;8.306;2022-08-03T14:08:43;8.18;;;7.78;;
10315;SDS011;5203;48.976;8.306;2022-08-03T14:11:11;7.95;;;7.45;;
10315;SDS011;5203;48.976;8.306;2022-08-03T14:14:01;8.43;;;7.93;;
10315;SDS011;5203;48.976;8.306;2022-08-03T14:16:30;7.78;;;7.30;;
10315;SDS011;5203;48.976;8.306;2022-08-03T14:18:58;7.35;;;6.93;;
10315;SDS011;5203;48.976;8.306;2022-08-03T14:21:24;7.53;;;7.03;;
10315;SDS011;5203;48.976;8.306;2022-08-03T14:23:59;7.90;;;7.50;;
10315;SDS011;5203;48.976;8.306;2022-08-03T14:26:30;7.85;;;7.43;;
10315;SDS011;5203;48.976;8.306;2022-08-03T14:28:59;7.97;;;7.57;;
10315;SDS011;5203;48.976;8.306;2022-08-03T14:31:25;8.35;;;7.95;;
10315;SDS011;5203;48.976;8.306;2022-08-03T14:33:51;8.20;;;7.70;;
10315;SDS011;5203;48.976;8.306;2022-08-03T14:36:33;8.07;;;7.68;;
10315;SDS011;5203;48.976;8.306;2022-08-03T14:39:01;8.07;;;7.68;;
10315;SDS011;5203;48.976;8.306;2022-08-03T14:41:27;8.32;;;7.70;;
10315;SDS011;5203;48.976;8.306;2022-08-03T14:46:29;8.38;;;7.97;;
10315;SDS011;5203;48.976;8.306;2022-08-03T14:48:56;8.15;;;7.75;;
10315;SDS011;5203;48.976;8.306;2022-08-03T14:53:58;9.65;;;8.75;;
10315;SDS011;5203;48.976;8.306;2022-08-03T14:56:24;9.07;;;8.57;;
10315;SDS011;5203;48.976;8.306;2022-08-03T14:58:50;9.10;;;8.70;;
10315;SDS011;5203;48.976;8.306;2022-08-03T15:01:16;9.40;;;9.00;;
10315;SDS011;5203;48.976;8.306;2022-08-03T15:03:41;9.30;;;8.80;;
10315;SDS011;5203;48.976;8.306;2022-08-03T15:06:08;9.70;;;9.00;;
10315;SDS011;5203;48.976;8.306;2022-08-03T15:08:34;9.63;;;9.02;;
10315;SDS011;5203;48.976;8.306;2022-08-03T15:10:59;8.60;;;8.00;;
10315;SDS011;5203;48.976;8.306;2022-08-03T15:13:25;9.32;;;8.52;;
10315;SDS011;5203;48.976;8.306;2022-08-03T15:15:51;8.88;;;8.32;;
10315;SDS011;5203;48.976;8.306;2022-08-03T15:18:17;8.43;;;7.75;;
10315;SDS011;5203;48.976;8.306;2022-08-03T15:20:44;8.63;;;8.23;;
10315;SDS011;5203;48.976;8.306;2022-08-03T15:23:11;9.13;;;8.63;;
10315;SDS011;5203;48.976;8.306;2022-08-03T15:25:37;8.82;;;8.32;;
10315;SDS011;5203;48.976;8.306;2022-08-03T15:28:03;8.68;;;8.27;;
10315;SDS011;5203;48.976;8.306;2022-08-03T15:30:29;8.93;;;8.50;;
10315;SDS011;5203;48.976;8.306;2022-08-03T15:32:55;9.25;;;8.65;;
10315;SDS011;5203;48.976;8.306;2022-08-03T15:35:21;9.30;;;8.80;;
10315;SDS011;5203;48.976;8.306;2022-08-03T15:37:46;9.43;;;9.02;;
10315;SDS011;5203;48.976;8.306;2022-08-03T15:40:12;9.27;;;8.77;;
10315;SDS011;5203;48.976;8.306;2022-08-03T15:42:38;9.80;;;8.88;;
10315;SDS011;5203;48.976;8.306;2022-08-03T15:45:04;9.13;;;8.73;;
10315;SDS011;5203;48.976;8.306;2022-08-03T15:47:30;9.35;;;8.95;;
10315;SDS011;5203;48.976;8.306;2022-08-03T15:49:56;13.93;;;9.98;;
10315;SDS011;5203;48.976;8.306;2022-08-03T15:52:22;9.68;;;9.15;;
10315;SDS011;5203;48.976;8.306;2022-08-03T15:54:47;9.80;;;8.98;;
10315;SDS011;5203;48.976;8.306;2022-08-03T15:57:13;10.43;;;9.93;;
10315;SDS011;5203;48.976;8.306;2022-08-03T15:59:39;9.82;;;9.43;;
10315;SDS011;5203;48.976;8.306;2022-08-03T16:02:05;10.23;;;9.70;;
10315;SDS011;5203;48.976;8.306;2022-08-03T16:04:30;9.45;;;8.80;;
10315;SDS011;5203;48.976;8.306;2022-08-03T16:06:56;10.05;;;9.15;;
10315;SDS011;5203;48.976;8.306;2022-08-03T16:09:22;9.52;;;9.02;;
10315;SDS011;5203;48.976;8.306;2022-08-03T16:11:47;10.05;;;9.55;;
10315;SDS011;5203;48.976;8.306;2022-08-03T16:14:13;9.73;;;9.32;;